Decoded Metar for KNRB (MAYPORT NAS in FL, USA) (IATA:NRB) | Meteo·Mobile Aviation Weather
aviador You're here:

KNRB Decoded Metar

MAYPORT NAS in FL, USA
Report Time2019-02-16 06:52:00
UTC Time2019-02-16 06:58:09
Flight Rules vfr VFR
Wind210° at 06 kt
W.Decomp.*RWY 23: 5.7 kt HW 1.8 kt LCW
W.Rank210° ranks 11
Current wind is below 210° avg. (6.5)
Visibility9999 m
Phenomena:N/A
Clouds:Scattered 110 Hf
Expected CloudBase > 400 ft AGL from Temp-Dew spread
CeilingNone
Temp13°C (ISA -2)
Dew Point12°C (94% RH)
AAT11.5°C
QNH1012 hPa
Density Alt3 ft
Elevation16 ft
Report Wrong Elevation
Raw Report
KNRB 160652Z AUTO 21006KT 10SM SCT110 13/12 A2989 RMK AO2 SLP121
T01280117=

Extra information for KNRB:More info

Metar Taf Metar & Taf Last 4 Metars F.Rules Stats Wind Profile Meteogram Temp Stats Airport Information Weather charts Add Link Nearby VenuesMetar ALERT Operation Metar Decoded Social comments

AIRNAV info for KNRB